Time;durP1;ratioP1;P1;durP2;ratioP2;P2;SDS_P1;SDS_P2;PMS_P1;PMS_P2;Temp;Humidity;BMP_temperature;BMP_pressure;BME280_temperature;BME280_humidity;BME280_pressure;Samples;Min_cycle;Max_cycle;Signal;HPM_P1;HPM_P2
2021/06/29 00:00:37;;;;;;;17.27;16.47;;;21.80;99.90;;;;;;4973270;28;21000;-64
2021/06/29 00:03:06;;;;;;;17.23;16.10;;;21.80;99.90;;;;;;4972975;28;20462;-64
2021/06/29 00:05:34;;;;;;;17.03;16.13;;;21.80;99.90;;;;;;4973122;28;20472;-63
2021/06/29 00:08:03;;;;;;;17.60;16.73;;;21.70;99.90;;;;;;4972729;28;20447;-63
2021/06/29 00:10:31;;;;;;;17.00;16.10;;;21.70;99.90;;;;;;4972947;28;20510;-64
2021/06/29 00:12:58;;;;;;;17.70;16.50;;;21.80;99.90;;;;;;4972905;28;20462;-64
2021/06/29 00:15:28;;;;;;;16.53;15.73;;;21.70;99.90;;;;;;4972893;28;20471;-64
2021/06/29 00:17:55;;;;;;;18.90;17.30;;;21.70;99.90;;;;;;4973015;28;20452;-64
2021/06/29 00:20:22;;;;;;;17.30;16.47;;;21.70;99.90;;;;;;4972993;28;20456;-63
2021/06/29 00:22:49;;;;;;;17.30;16.40;;;21.70;99.90;;;;;;4972708;28;20447;-64
2021/06/29 00:25:18;;;;;;;18.90;17.83;;;21.70;99.90;;;;;;4972942;28;20471;-64
2021/06/29 00:27:45;;;;;;;18.67;17.57;;;21.70;99.90;;;;;;4972909;28;20474;-63
2021/06/29 00:30:13;;;;;;;18.97;17.67;;;21.70;99.90;;;;;;4973069;28;20930;-64
2021/06/29 00:32:40;;;;;;;18.63;17.53;;;21.70;99.90;;;;;;4972530;28;20845;-64
2021/06/29 00:35:08;;;;;;;16.83;15.63;;;21.70;99.90;;;;;;4972843;28;20790;-63
2021/06/29 00:37:36;;;;;;;16.80;15.80;;;21.70;99.90;;;;;;4972798;28;20846;-64
2021/06/29 00:40:03;;;;;;;17.50;16.47;;;21.70;99.90;;;;;;4972744;28;20447;-64
2021/06/29 00:42:31;;;;;;;16.60;15.70;;;21.70;99.90;;;;;;4972503;28;20483;-64
2021/06/29 00:44:57;;;;;;;16.60;15.30;;;21.70;99.90;;;;;;4972522;28;20826;-64
2021/06/29 00:47:24;;;;;;;18.40;17.20;;;21.60;99.90;;;;;;4972626;28;20463;-64
2021/06/29 00:49:51;;;;;;;18.33;17.13;;;21.60;99.90;;;;;;4972741;28;20454;-64
2021/06/29 00:52:18;;;;;;;18.47;17.07;;;21.50;99.90;;;;;;4972545;28;20848;-64
2021/06/29 00:54:45;;;;;;;18.20;17.00;;;21.50;99.90;;;;;;4972525;28;20479;-64
2021/06/29 00:57:13;;;;;;;18.60;17.40;;;21.40;99.90;;;;;;4972602;28;20934;-64
2021/06/29 00:59:42;;;;;;;18.13;16.90;;;21.40;99.90;;;;;;4972544;28;20818;-64
2021/06/29 01:02:10;;;;;;;17.47;16.20;;;21.30;99.90;;;;;;4972308;28;20447;-64
2021/06/29 01:04:38;;;;;;;18.23;17.03;;;21.20;99.90;;;;;;4972488;28;20472;-64
2021/06/29 01:07:06;;;;;;;18.17;16.87;;;21.10;99.90;;;;;;4972487;28;20866;-64
2021/06/29 01:09:33;;;;;;;18.17;16.47;;;21.00;99.90;;;;;;4972513;28;20451;-64
2021/06/29 01:12:00;;;;;;;19.40;17.73;;;21.00;99.90;;;;;;4972165;28;20479;-64
2021/06/29 01:14:27;;;;;;;19.33;17.40;;;20.90;99.90;;;;;;4972312;28;20476;-64
2021/06/29 01:16:57;;;;;;;18.50;17.10;;;20.90;99.90;;;;;;4972334;28;20459;-64
2021/06/29 01:19:32;;;;;;;16.60;15.40;;;20.80;99.90;;;;;;4973930;28;20930;-63
2021/06/29 01:22:03;;;;;;;17.93;14.50;;;20.80;99.90;;;;;;4975981;28;20455;-64
2021/06/29 01:24:31;;;;;;;13.70;12.43;;;20.70;99.90;;;;;;4976121;28;20818;-64
2021/06/29 01:27:03;;;;;;;13.80;12.83;;;20.70;99.90;;;;;;4976095;28;20454;-63
2021/06/29 01:29:41;;;;;;;12.07;11.10;;;20.60;99.90;;;;;;4975947;28;20869;-64
2021/06/29 01:32:12;;;;;;;11.50;10.80;;;20.60;99.90;;;;;;4975652;28;20478;-64
2021/06/29 01:34:39;;;;;;;10.87;10.37;;;20.50;99.90;;;;;;4975848;28;20473;-63
2021/06/29 01:37:07;;;;;;;10.17;9.57;;;20.40;99.90;;;;;;4975784;28;20932;-64
2021/06/29 01:39:34;;;;;;;10.80;10.20;;;20.30;99.90;;;;;;4975860;28;20454;-63
2021/06/29 01:42:00;;;;;;;10.20;9.60;;;20.20;99.90;;;;;;4975576;28;20439;-64
2021/06/29 01:44:29;;;;;;;10.40;9.80;;;20.10;99.90;;;;;;4975560;28;20490;-64
2021/06/29 01:46:57;;;;;;;10.43;9.73;;;20.00;99.90;;;;;;4975675;28;20491;-64
2021/06/29 01:49:26;;;;;;;10.73;10.13;;;19.90;99.90;;;;;;4975590;28;20447;-64
2021/06/29 01:51:53;;;;;;;9.53;9.13;;;19.90;99.90;;;;;;4975230;28;20479;-64
2021/06/29 01:54:22;;;;;;;9.70;9.20;;;19.80;99.90;;;;;;4975560;28;20463;-63
2021/06/29 01:56:49;;;;;;;8.90;8.50;;;19.70;99.90;;;;;;4975451;28;20492;-64
2021/06/29 01:59:18;;;;;;;8.90;8.40;;;19.70;99.90;;;;;;4975453;28;20447;-64
2021/06/29 02:01:45;;;;;;;8.57;8.13;;;19.60;99.90;;;;;;4975083;28;20458;-64
2021/06/29 02:04:12;;;;;;;8.63;8.30;;;19.60;99.90;;;;;;4975290;28;20474;-64
2021/06/29 02:06:39;;;;;;;8.20;7.90;;;19.50;99.90;;;;;;4975272;28;20451;-64
2021/06/29 02:09:08;;;;;;;8.73;8.43;;;19.50;99.90;;;;;;4975250;28;20451;-64
2021/06/29 02:11:36;;;;;;;9.57;8.93;;;19.40;99.90;;;;;;4974862;28;20538;-63
2021/06/29 02:14:03;;;;;;;8.20;7.90;;;19.40;99.90;;;;;;4975046;28;20471;-64
2021/06/29 02:16:30;;;;;;;9.73;9.27;;;19.40;99.90;;;;;;4975162;28;20459;-64
2021/06/29 02:18:57;;;;;;;9.80;9.30;;;19.40;99.90;;;;;;4975024;28;20938;-65
2021/06/29 02:21:24;;;;;;;9.63;9.23;;;19.30;99.90;;;;;;4974915;28;20447;-64
2021/06/29 02:23:51;;;;;;;9.73;9.33;;;19.30;99.90;;;;;;4974957;28;20464;-64
2021/06/29 02:26:18;;;;;;;10.13;9.53;;;19.30;99.90;;;;;;4974982;28;20452;-64
2021/06/29 02:28:46;;;;;;;10.80;10.23;;;19.30;99.90;;;;;;4974931;28;20439;-64
2021/06/29 02:31:13;;;;;;;10.33;9.73;;;19.20;99.90;;;;;;4974288;28;20447;-65
2021/06/29 02:33:40;;;;;;;10.73;10.23;;;19.30;99.90;;;;;;4974667;28;20934;-65
2021/06/29 02:36:07;;;;;;;10.47;9.90;;;19.30;99.90;;;;;;4974840;28;20452;-63
2021/06/29 02:38:35;;;;;;;10.90;10.30;;;19.40;99.90;;;;;;4974690;28;20937;-64
2021/06/29 02:41:03;;;;;;;10.63;10.03;;;19.50;99.90;;;;;;4974757;28;20451;-64
2021/06/29 02:43:29;;;;;;;9.60;9.10;;;19.60;99.90;;;;;;4974675;28;20485;-64
2021/06/29 02:45:57;;;;;;;10.33;9.73;;;19.60;99.90;;;;;;4974720;28;20440;-64
2021/06/29 02:48:24;;;;;;;9.63;9.23;;;19.70;99.90;;;;;;4974710;28;20930;-64
2021/06/29 02:50:51;;;;;;;10.20;9.60;;;19.70;99.90;;;;;;4974522;28;20447;-64
2021/06/29 02:53:17;;;;;;;11.03;10.50;;;19.70;99.90;;;;;;4974524;28;21007;-64
2021/06/29 02:55:44;;;;;;;9.20;8.80;;;19.60;99.90;;;;;;4974419;28;20467;-63
2021/06/29 02:58:11;;;;;;;9.33;8.73;;;19.60;99.90;;;;;;4974412;28;20447;-63
2021/06/29 03:00:58;;;;;;;10.40;9.90;;;19.50;99.90;;;;;;4974420;28;20534;-64
2021/06/29 03:03:25;;;;;;;10.10;9.60;;;19.50;99.90;;;;;;4974125;28;20443;-64
2021/06/29 03:05:51;;;;;;;10.83;10.23;;;19.40;99.90;;;;;;4974253;28;20459;-64
2021/06/29 03:08:18;;;;;;;10.10;9.60;;;19.40;99.90;;;;;;4974210;28;20976;-64
2021/06/29 03:10:45;;;;;;;13.07;12.37;;;19.40;99.90;;;;;;4974208;28;20452;-63
2021/06/29 03:13:11;;;;;;;10.90;10.40;;;19.40;99.90;;;;;;4973747;28;20851;-64
2021/06/29 03:15:38;;;;;;;11.20;10.70;;;19.40;99.90;;;;;;4974081;28;20965;-63
2021/06/29 03:18:06;;;;;;;11.77;11.20;;;19.40;99.90;;;;;;4974178;28;20448;-64
2021/06/29 03:20:36;;;;;;;13.40;12.67;;;19.30;99.90;;;;;;4974055;28;20443;-64
2021/06/29 03:23:02;;;;;;;11.90;11.20;;;19.30;99.90;;;;;;4973718;28;20510;-63
2021/06/29 03:25:29;;;;;;;11.67;11.07;;;19.40;99.90;;;;;;4973782;28;20463;-63
2021/06/29 03:27:56;;;;;;;12.67;12.07;;;19.40;99.90;;;;;;4973845;28;20447;-64
2021/06/29 03:30:23;;;;;;;13.07;12.27;;;19.40;99.90;;;;;;4973982;28;20456;-64
2021/06/29 03:32:50;;;;;;;12.07;11.43;;;19.40;99.90;;;;;;4973466;28;20574;-64
2021/06/29 03:35:18;;;;;;;11.47;10.87;;;19.50;99.90;;;;;;4973647;28;20468;-64
2021/06/29 03:37:44;;;;;;;11.53;10.73;;;19.50;99.90;;;;;;4973728;28;20463;-64
2021/06/29 03:40:13;;;;;;;12.50;11.80;;;19.50;99.90;;;;;;4973663;28;20460;-64
2021/06/29 03:42:39;;;;;;;12.80;11.90;;;19.50;99.90;;;;;;4972633;28;20447;-64
2021/06/29 03:45:07;;;;;;;12.23;11.43;;;19.50;99.90;;;;;;4973226;28;20479;-64
2021/06/29 03:47:34;;;;;;;12.90;12.07;;;19.50;99.90;;;;;;4973613;28;20439;-64
2021/06/29 03:50:01;;;;;;;15.07;14.07;;;19.50;99.90;;;;;;4973495;28;20463;-63
2021/06/29 03:52:29;;;;;;;15.47;14.40;;;19.50;99.90;;;;;;4973132;28;20484;-64
2021/06/29 03:54:56;;;;;;;14.30;13.40;;;19.50;99.90;;;;;;4973333;28;20472;-63
2021/06/29 03:57:23;;;;;;;16.63;15.40;;;19.60;99.90;;;;;;4973279;28;20820;-63
2021/06/29 03:59:49;;;;;;;17.93;16.33;;;19.50;99.90;;;;;;4973314;28;20452;-63
2021/06/29 04:02:16;;;;;;;17.77;16.43;;;19.60;99.90;;;;;;4973034;28;20448;-64
2021/06/29 04:04:43;;;;;;;17.47;16.27;;;19.60;99.90;;;;;;4973145;28;20479;-64
2021/06/29 04:07:09;;;;;;;17.07;16.03;;;19.60;99.90;;;;;;4973141;28;20456;-64
2021/06/29 04:09:38;;;;;;;17.97;16.80;;;19.60;99.90;;;;;;4973178;28;20451;-64
2021/06/29 04:12:06;;;;;;;18.93;17.73;;;19.70;99.90;;;;;;4972819;28;20542;-63
2021/06/29 04:14:32;;;;;;;20.70;19.20;;;19.70;99.90;;;;;;4972984;28;20482;-64
2021/06/29 04:16:59;;;;;;;18.50;17.20;;;19.70;99.90;;;;;;4973106;28;20447;-64
2021/06/29 04:19:26;;;;;;;19.20;17.90;;;19.70;99.90;;;;;;4972944;28;20448;-64
2021/06/29 04:21:53;;;;;;;18.30;16.80;;;19.70;99.90;;;;;;4972820;28;20447;-64
2021/06/29 04:24:20;;;;;;;17.93;16.67;;;19.70;99.90;;;;;;4972987;28;20467;-63
2021/06/29 04:26:48;;;;;;;17.07;15.73;;;19.70;99.90;;;;;;4972888;28;20459;-64
2021/06/29 04:29:15;;;;;;;18.43;17.33;;;19.70;99.90;;;;;;4972974;28;20440;-64
2021/06/29 04:31:42;;;;;;;18.87;17.37;;;19.70;99.90;;;;;;4972657;28;20444;-64
2021/06/29 04:34:08;;;;;;;17.10;16.10;;;19.70;99.90;;;;;;4972668;28;20479;-64
2021/06/29 04:36:35;;;;;;;18.87;17.67;;;19.80;99.90;;;;;;4972922;28;20448;-63
2021/06/29 04:39:02;;;;;;;18.50;17.10;;;19.80;99.90;;;;;;4972837;28;20849;-64
2021/06/29 04:41:29;;;;;;;21.53;19.83;;;19.90;99.90;;;;;;4972557;28;20451;-64
2021/06/29 04:43:57;;;;;;;20.37;18.97;;;20.00;99.90;;;;;;4972582;28;20479;-64
2021/06/29 04:46:24;;;;;;;22.43;20.73;;;20.20;99.90;;;;;;4972818;28;20444;-65
2021/06/29 04:48:51;;;;;;;22.47;20.43;;;20.30;99.90;;;;;;4972748;28;20509;-64
2021/06/29 04:51:17;;;;;;;24.97;23.03;;;20.50;99.90;;;;;;4972530;28;20448;-64
2021/06/29 04:53:44;;;;;;;26.57;24.40;;;20.60;99.90;;;;;;4974366;28;20510;-64
2021/06/29 04:56:17;;;;;;;25.17;23.27;;;20.70;99.90;;;;;;4976611;28;20447;-64
2021/06/29 04:58:45;;;;;;;26.20;23.80;;;20.80;99.90;;;;;;4976803;28;20506;-64
2021/06/29 05:01:13;;;;;;;28.33;26.13;;;21.10;99.90;;;;;;4976273;28;20448;-64
2021/06/29 05:03:40;;;;;;;32.00;29.40;;;21.10;99.90;;;;;;4976334;28;20467;-63
2021/06/29 05:06:07;;;;;;;33.97;31.23;;;21.20;99.90;;;;;;4976270;28;20451;-64
2021/06/29 05:08:33;;;;;;;31.17;28.57;;;21.20;99.90;;;;;;4976409;28;20451;-65
2021/06/29 05:11:00;;;;;;;30.67;27.87;;;21.30;99.90;;;;;;4976234;28;20454;-64
2021/06/29 05:13:27;;;;;;;30.83;28.33;;;21.40;99.90;;;;;;4975937;28;20480;-64
2021/06/29 05:15:54;;;;;;;29.27;26.90;;;21.30;99.90;;;;;;4976152;28;20448;-63
2021/06/29 05:18:22;;;;;;;27.87;25.80;;;21.30;99.90;;;;;;4976392;28;20447;-64
2021/06/29 05:20:48;;;;;;;27.20;25.33;;;21.30;99.90;;;;;;4976223;28;20478;-65
2021/06/29 05:23:15;;;;;;;26.13;24.33;;;21.30;99.90;;;;;;4976065;28;20452;-64
2021/06/29 05:25:42;;;;;;;24.77;23.23;;;21.30;99.90;;;;;;4976172;28;20988;-64
2021/06/29 05:28:08;;;;;;;22.90;21.60;;;21.40;99.90;;;;;;4975977;28;20439;-65
2021/06/29 05:30:35;;;;;;;22.33;21.13;;;21.40;99.90;;;;;;4975921;28;20455;-65
2021/06/29 05:33:02;;;;;;;21.30;20.10;;;21.30;99.90;;;;;;4975722;28;20491;-64
2021/06/29 05:35:30;;;;;;;20.60;19.50;;;21.40;99.90;;;;;;4975887;28;20468;-64
2021/06/29 05:37:57;;;;;;;22.13;20.40;;;21.40;99.90;;;;;;4976150;28;20456;-64
2021/06/29 05:40:23;;;;;;;21.57;20.27;;;21.50;99.90;;;;;;4976017;28;20949;-64
2021/06/29 05:42:50;;;;;;;20.17;19.17;;;21.40;99.90;;;;;;4975568;28;20798;-64
2021/06/29 05:45:17;;;;;;;19.93;18.83;;;21.40;99.90;;;;;;5010454;23;20501;-66
2021/06/29 05:47:43;;;;;;;19.43;18.43;;;21.50;99.90;;;;;;4986536;28;21154;-66
2021/06/29 05:50:11;;;;;;;19.90;18.17;;;21.70;99.90;;;;;;4975493;28;20450;-66
2021/06/29 05:52:40;;;;;;;18.80;17.90;;;21.90;99.90;;;;;;4975478;28;20483;-65
2021/06/29 05:55:08;;;;;;;17.77;16.97;;;22.10;99.90;;;;;;4975368;28;20474;-66
2021/06/29 05:57:36;;;;;;;18.23;17.33;;;22.40;99.90;;;;;;4975357;28;20454;-65
2021/06/29 06:00:04;;;;;;;18.20;17.50;;;22.60;99.90;;;;;;4975438;28;20543;-65
2021/06/29 06:02:31;;;;;;;19.17;18.17;;;22.90;99.90;;;;;;4975234;28;20447;-65
2021/06/29 06:04:58;;;;;;;17.40;16.60;;;22.90;99.90;;;;;;4974452;28;20468;-66
2021/06/29 06:07:24;;;;;;;17.40;16.70;;;23.10;99.90;;;;;;4975448;28;20818;-66
2021/06/29 06:09:52;;;;;;;18.60;17.70;;;23.10;99.90;;;;;;4975176;28;20447;-66
2021/06/29 06:12:19;;;;;;;18.20;17.50;;;23.00;99.90;;;;;;4974660;28;20455;-66
2021/06/29 06:14:45;;;;;;;18.67;17.63;;;23.10;99.90;;;;;;4974968;28;20475;-66
2021/06/29 06:17:12;;;;;;;18.43;17.43;;;23.10;99.90;;;;;;4974924;28;20462;-66
2021/06/29 06:19:39;;;;;;;18.00;17.00;;;23.10;99.90;;;;;;4975092;28;20448;-65
2021/06/29 06:22:05;;;;;;;17.60;16.80;;;23.10;99.90;;;;;;4974580;28;20451;-65
2021/06/29 06:24:32;;;;;;;17.90;17.07;;;23.00;99.90;;;;;;4975137;28;20470;-66
2021/06/29 06:27:00;;;;;;;18.20;17.40;;;23.10;99.90;;;;;;4975158;28;20448;-66
2021/06/29 06:29:27;;;;;;;17.27;16.47;;;23.20;99.90;;;;;;4975041;28;20443;-67
2021/06/29 06:31:54;;;;;;;17.87;16.93;;;23.10;99.90;;;;;;4974635;28;20455;-65
2021/06/29 06:34:21;;;;;;;17.23;16.63;;;23.30;99.90;;;;;;4974717;28;20488;-66
2021/06/29 06:36:47;;;;;;;18.03;17.03;;;23.20;99.90;;;;;;4974841;28;20448;-66
2021/06/29 06:39:14;;;;;;;16.97;16.17;;;23.20;99.90;;;;;;4974722;28;20534;-64
2021/06/29 06:41:41;;;;;;;17.83;16.77;;;23.40;99.90;;;;;;4974546;28;20450;-66
2021/06/29 06:44:09;;;;;;;17.80;16.70;;;23.50;99.90;;;;;;4974564;28;20484;-66
2021/06/29 06:46:36;;;;;;;16.80;16.00;;;23.50;99.90;;;;;;4974717;28;20514;-66
2021/06/29 06:49:02;;;;;;;17.17;16.37;;;23.70;99.90;;;;;;4974529;28;20440;-65
2021/06/29 06:51:29;;;;;;;17.97;17.03;;;23.60;99.90;;;;;;4974322;28;20448;-66
2021/06/29 06:53:56;;;;;;;17.73;16.90;;;23.50;99.90;;;;;;4974158;28;20479;-66
2021/06/29 06:56:22;;;;;;;18.30;17.20;;;23.50;99.90;;;;;;4974432;28;20451;-65
2021/06/29 06:58:49;;;;;;;18.57;17.63;;;23.40;99.90;;;;;;4974337;28;20451;-66
2021/06/29 07:01:17;;;;;;;18.57;17.37;;;23.60;99.90;;;;;;4974174;28;20488;-66
2021/06/29 07:03:45;;;;;;;18.10;17.40;;;23.60;99.90;;;;;;4974384;28;20443;-67
2021/06/29 07:06:13;;;;;;;18.07;17.20;;;23.70;99.90;;;;;;4974134;28;20448;-65
2021/06/29 07:08:39;;;;;;;18.40;17.60;;;23.70;99.90;;;;;;4974242;28;20819;-65
2021/06/29 07:11:07;;;;;;;20.10;18.90;;;23.40;99.90;;;;;;4973997;28;20448;-67
2021/06/29 07:13:34;;;;;;;19.33;18.27;;;23.30;99.90;;;;;;4974031;28;20859;-65
2021/06/29 07:16:01;;;;;;;18.93;18.10;;;23.30;99.90;;;;;;4974071;28;20464;-66
2021/06/29 07:18:29;;;;;;;19.37;18.27;;;23.40;99.90;;;;;;4973904;28;20933;-65
2021/06/29 07:20:56;;;;;;;18.43;17.40;;;23.60;99.90;;;;;;4974088;28;20452;-64
2021/06/29 07:23:22;;;;;;;19.40;18.30;;;23.80;99.90;;;;;;4973615;28;20443;-65
2021/06/29 07:25:49;;;;;;;18.13;17.23;;;23.60;99.90;;;;;;4973835;28;20949;-65
2021/06/29 07:28:16;;;;;;;19.33;18.27;;;23.50;99.90;;;;;;4973957;28;20815;-65
2021/06/29 07:30:44;;;;;;;18.50;17.70;;;23.50;99.90;;;;;;4973836;28;20538;-66
2021/06/29 07:33:11;;;;;;;21.00;19.90;;;23.50;99.90;;;;;;4973447;28;21016;-65
2021/06/29 07:35:39;;;;;;;20.87;19.60;;;23.50;99.90;;;;;;4973326;28;20981;-66
2021/06/29 07:38:07;;;;;;;19.70;18.60;;;23.50;99.90;;;;;;4973495;28;20462;-65
2021/06/29 07:40:35;;;;;;;19.90;18.77;;;23.50;99.90;;;;;;4973572;28;20456;-66
2021/06/29 07:43:02;;;;;;;19.47;18.27;;;23.40;99.90;;;;;;4973459;28;20467;-66
2021/06/29 07:45:29;;;;;;;19.00;18.10;;;23.30;99.90;;;;;;4973357;28;20480;-65
2021/06/29 07:48:00;;;;;;;19.10;18.07;;;23.30;99.90;;;;;;4973568;28;20451;-66
2021/06/29 07:50:27;;;;;;;19.00;18.20;;;23.40;99.90;;;;;;4973460;28;20866;-65
2021/06/29 07:52:55;;;;;;;20.07;18.87;;;23.70;99.90;;;;;;4973108;28;20455;-66
2021/06/29 07:55:21;;;;;;;21.10;19.70;;;23.70;99.90;;;;;;4973363;28;20467;-65
2021/06/29 07:57:48;;;;;;;21.13;20.00;;;23.60;99.90;;;;;;4973382;28;20440;-65
2021/06/29 08:00:15;;;;;;;21.80;20.40;;;23.80;99.90;;;;;;4973242;28;20451;-65
2021/06/29 08:02:42;;;;;;;20.33;19.30;;;23.60;99.90;;;;;;4973060;28;20451;-65
2021/06/29 08:05:09;;;;;;;23.10;21.63;;;23.40;99.90;;;;;;4973080;28;20888;-66
2021/06/29 08:07:36;;;;;;;22.50;21.20;;;23.10;99.90;;;;;;4973212;28;20450;-65
2021/06/29 08:10:06;;;;;;;21.60;20.33;;;23.10;99.90;;;;;;4973129;28;20443;-65
2021/06/29 08:12:33;;;;;;;22.37;21.23;;;23.10;99.90;;;;;;4972789;28;20455;-67
2021/06/29 08:15:00;;;;;;;21.93;20.73;;;23.30;99.90;;;;;;4973028;28;20500;-65
2021/06/29 08:17:27;;;;;;;22.37;21.10;;;23.20;99.90;;;;;;4973029;28;20448;-64
2021/06/29 08:19:54;;;;;;;21.90;20.60;;;23.30;99.90;;;;;;4972824;28;20451;-65
2021/06/29 08:22:21;;;;;;;21.83;20.57;;;23.50;99.90;;;;;;4972773;28;20836;-66
2021/06/29 08:24:47;;;;;;;22.10;20.90;;;23.70;99.90;;;;;;4972899;28;20826;-65
2021/06/29 08:27:15;;;;;;;22.60;21.10;;;23.60;99.90;;;;;;4972890;28;20455;-65
2021/06/29 08:29:43;;;;;;;22.37;21.17;;;24.00;99.90;;;;;;4972597;28;20450;-65
2021/06/29 08:32:10;;;;;;;20.70;19.60;;;24.40;99.90;;;;;;4972668;28;20809;-65
2021/06/29 08:34:36;;;;;;;22.37;20.73;;;24.60;99.90;;;;;;4972677;28;20487;-66
2021/06/29 08:37:03;;;;;;;23.20;21.90;;;24.90;99.90;;;;;;4972789;28;20451;-65
2021/06/29 08:39:30;;;;;;;22.63;21.53;;;25.00;99.90;;;;;;4972778;28;20964;-66
2021/06/29 08:41:57;;;;;;;23.50;22.20;;;24.90;99.90;;;;;;4972695;28;20440;-66
2021/06/29 08:44:26;;;;;;;23.23;21.93;;;24.80;99.90;;;;;;4972561;28;20483;-66
2021/06/29 08:46:53;;;;;;;22.80;21.63;;;24.90;99.90;;;;;;4972689;28;20455;-65
2021/06/29 08:49:19;;;;;;;23.30;22.10;;;24.80;99.90;;;;;;4972666;28;20448;-66
2021/06/29 08:51:46;;;;;;;22.57;21.47;;;24.90;99.90;;;;;;4972496;28;20483;-65
2021/06/29 08:54:15;;;;;;;24.07;22.87;;;25.30;99.90;;;;;;4972571;28;20851;-66
2021/06/29 08:56:42;;;;;;;24.20;23.00;;;25.30;99.90;;;;;;4972607;28;20456;-66
2021/06/29 08:59:09;;;;;;;25.50;24.20;;;25.00;99.90;;;;;;4972591;28;20447;-65
2021/06/29 09:01:37;;;;;;;25.27;23.80;;;24.50;99.90;;;;;;4972555;28;20443;-65
2021/06/29 09:04:04;;;;;;;24.90;23.60;;;24.70;99.90;;;;;;4972436;28;20934;-66
2021/06/29 09:06:32;;;;;;;25.50;23.77;;;24.60;99.90;;;;;;4972476;28;20459;-66
2021/06/29 09:09:22;;;;;;;25.00;23.60;;;24.70;99.90;;;;;;4972470;28;20448;-65
2021/06/29 09:11:49;;;;;;;25.87;24.30;;;24.70;99.90;;;;;;4972267;28;20942;-65
2021/06/29 09:14:16;;;;;;;25.80;24.30;;;24.90;99.90;;;;;;4972264;28;20515;-66
2021/06/29 09:16:46;;;;;;;22.73;21.50;;;25.20;99.90;;;;;;4972437;28;20440;-65
2021/06/29 09:19:14;;;;;;;25.03;23.83;;;25.50;99.90;;;;;;4972327;28;20551;-66
2021/06/29 09:21:41;;;;;;;25.87;24.47;;;25.60;99.90;;;;;;4972232;28;20770;-66
2021/06/29 09:24:08;;;;;;;25.80;24.40;;;25.40;99.90;;;;;;4972563;28;20801;-66
2021/06/29 09:26:40;;;;;;;26.47;24.67;;;25.50;99.90;;;;;;4972504;28;20444;-66
2021/06/29 09:29:07;;;;;;;26.57;24.87;;;25.90;99.90;;;;;;4972452;28;20455;-66
2021/06/29 09:31:35;;;;;;;24.90;23.63;;;26.20;99.90;;;;;;4972331;28;20635;-66
2021/06/29 09:34:05;;;;;;;23.40;22.20;;;26.30;99.90;;;;;;4972243;28;20486;-64
2021/06/29 09:36:34;;;;;;;23.67;22.30;;;26.50;99.90;;;;;;4972300;28;20451;-66
2021/06/29 09:39:02;;;;;;;26.33;24.87;;;26.50;99.90;;;;;;4972328;28;20950;-66
2021/06/29 09:41:31;;;;;;;27.13;25.63;;;26.40;99.90;;;;;;4974892;28;20520;-66
2021/06/29 09:44:05;;;;;;;26.07;24.60;;;26.40;99.90;;;;;;4975706;28;20443;-66
2021/06/29 09:46:31;;;;;;;27.30;25.50;;;26.60;99.90;;;;;;4975803;28;20940;-66
2021/06/29 09:49:00;;;;;;;26.83;25.23;;;26.50;99.70;;;;;;4975776;28;20451;-65
2021/06/29 09:51:31;;;;;;;26.53;24.93;;;26.70;99.90;;;;;;4975409;28;20547;-66
2021/06/29 09:54:00;;;;;;;26.10;24.70;;;27.30;99.50;;;;;;4975407;28;21007;-66
2021/06/29 09:56:32;;;;;;;26.03;24.60;;;27.30;98.40;;;;;;4975513;28;20452;-64
2021/06/29 09:59:00;;;;;;;27.97;26.40;;;27.40;98.50;;;;;;4975557;28;20458;-66
2021/06/29 10:01:29;;;;;;;28.50;26.90;;;27.60;97.30;;;;;;4975101;28;20455;-65
2021/06/29 10:03:57;;;;;;;29.90;27.60;;;27.70;97.00;;;;;;4975254;28;20540;-65
2021/06/29 10:06:27;;;;;;;29.27;27.50;;;27.50;97.10;;;;;;4975388;28;20535;-65
2021/06/29 10:09:01;;;;;;;30.63;28.90;;;27.30;96.50;;;;;;4975222;28;20466;-64
2021/06/29 10:11:31;;;;;;;27.50;25.90;;;27.50;96.40;;;;;;4975025;28;20447;-66
2021/06/29 10:14:01;;;;;;;27.47;25.90;;;27.90;95.50;;;;;;4975259;28;20841;-66
2021/06/29 10:16:30;;;;;;;27.20;25.70;;;28.30;93.90;;;;;;4975281;28;20483;-66
2021/06/29 10:19:13;;;;;;;26.70;25.10;;;28.60;92.90;;;;;;4975228;28;20448;-66
2021/06/29 10:21:42;;;;;;;28.47;26.77;;;28.20;92.80;;;;;;4974935;28;20447;-66
2021/06/29 10:24:13;;;;;;;29.73;27.73;;;27.40;93.50;;;;;;4975013;28;20470;-66
2021/06/29 10:26:42;;;;;;;29.47;27.50;;;27.20;94.70;;;;;;4975064;28;20456;-66
2021/06/29 10:29:11;;;;;;;28.20;26.60;;;27.10;95.00;;;;;;4975008;28;20945;-65
2021/06/29 10:31:40;;;;;;;27.70;26.00;;;27.30;95.50;;;;;;4974466;28;20450;-65
2021/06/29 10:34:09;;;;;;;28.43;26.87;;;27.90;94.60;;;;;;4974695;28;20499;-65
2021/06/29 10:36:39;;;;;;;29.83;27.90;;;27.70;93.40;;;;;;4974752;28;20448;-66
2021/06/29 10:39:08;;;;;;;25.77;24.47;;;28.00;93.20;;;;;;4974804;28;20478;-66
2021/06/29 10:41:38;;;;;;;28.40;26.70;;;28.30;92.60;;;;;;4974557;28;20451;-65
2021/06/29 10:44:11;;;;;;;27.43;25.93;;;28.50;91.10;;;;;;4974654;28;20463;-65
2021/06/29 10:46:43;;;;;;;28.10;26.37;;;28.50;90.60;;;;;;4974495;28;20502;-65
2021/06/29 10:49:46;;;;;;;27.20;25.80;;;28.30;89.00;;;;;;4974533;28;20542;-66
2021/06/29 10:52:39;;;;;;;27.60;26.20;;;28.60;90.40;;;;;;4974133;28;20462;-65
2021/06/29 10:55:07;;;;;;;27.10;25.80;;;28.70;89.30;;;;;;4974555;28;20495;-64
2021/06/29 10:57:43;;;;;;;27.23;25.63;;;29.10;87.40;;;;;;4974361;28;20451;-66
2021/06/29 11:00:25;;;;;;;26.40;25.00;;;28.80;84.50;;;;;;4974527;28;20450;-66
2021/06/29 11:03:04;;;;;;;25.97;24.67;;;28.80;83.90;;;;;;4974068;28;20823;-65
2021/06/29 11:05:32;;;;;;;26.97;25.57;;;28.80;83.70;;;;;;4974226;28;20539;-66
2021/06/29 11:08:10;;;;;;;25.80;24.40;;;28.90;84.00;;;;;;4974214;28;20938;-67
2021/06/29 11:10:39;;;;;;;27.47;25.90;;;29.10;85.10;;;;;;4974200;28;20448;-66
2021/06/29 11:13:09;;;;;;;27.23;25.93;;;29.30;82.40;;;;;;4974074;28;20538;-66
2021/06/29 11:15:49;;;;;;;27.03;25.63;;;29.20;82.90;;;;;;4974013;28;20574;-66
2021/06/29 11:18:18;;;;;;;26.43;24.90;;;29.00;81.90;;;;;;4974092;28;20447;-66
2021/06/29 11:20:46;;;;;;;25.30;24.17;;;29.40;80.00;;;;;;4973987;28;20439;-65
2021/06/29 11:23:18;;;;;;;26.80;25.37;;;29.60;75.20;;;;;;4973663;28;20479;-65
2021/06/29 11:25:50;;;;;;;25.30;24.03;;;30.30;73.70;;;;;;4973950;28;20463;-65
2021/06/29 11:28:22;;;;;;;25.00;23.80;;;30.90;70.50;;;;;;4973783;28;20463;-66
2021/06/29 11:31:00;;;;;;;25.57;24.00;;;31.10;64.70;;;;;;4973709;28;20447;-66
2021/06/29 11:33:51;;;;;;;26.27;24.97;;;30.50;64.00;;;;;;4973673;28;20447;-65
2021/06/29 11:36:51;;;;;;;26.63;25.37;;;31.20;59.50;;;;;;4973657;28;20447;-66
2021/06/29 11:39:35;;;;;;;24.30;23.20;;;32.40;56.70;;;;;;4973785;28;20447;-66
2021/06/29 11:42:19;;;;;;;25.00;23.90;;;31.70;55.20;;;;;;4973289;28;20879;-65
2021/06/29 11:44:49;;;;;;;24.83;23.83;;;32.90;55.40;;;;;;4973868;28;20479;-65
2021/06/29 11:47:17;;;;;;;25.90;24.80;;;34.30;51.00;;;;;;4973480;28;20444;-66
2021/06/29 11:49:58;;;;;;;24.85;23.70;;;35.60;48.10;;;;;;4973483;28;20208;-65
2021/06/29 11:52:30;;;;;;;25.70;24.60;;;37.50;44.30;;;;;;4973273;28;20208;-66
2021/06/29 11:55:05;;;;;;;24.73;23.63;;;40.10;40.10;;;;;;4973244;28;20240;-65
2021/06/29 11:57:35;;;;;;;25.10;23.98;;;40.10;36.80;;;;;;4973290;28;20292;-65
2021/06/29 12:00:08;;;;;;;24.70;23.40;;;35.90;38.60;;;;;;4973269;28;20227;-65
2021/06/29 12:02:35;;;;;;;25.10;24.10;;;34.10;41.70;;;;;;4972387;28;20211;-65
2021/06/29 12:05:05;;;;;;;24.20;23.10;;;33.10;43.80;;;;;;4973261;28;20467;-65
2021/06/29 12:07:37;;;;;;;23.70;22.70;;;33.20;45.60;;;;;;4973222;28;20813;-65
2021/06/29 12:10:07;;;;;;;24.33;23.33;;;36.20;42.30;;;;;;4973296;28;20200;-66
2021/06/29 12:12:34;;;;;;;23.02;22.13;;;39.80;38.80;;;;;;4973020;28;20229;-64
2021/06/29 12:15:08;;;;;;;23.40;22.40;;;39.00;36.10;;;;;;4972966;28;20223;-63
2021/06/29 12:17:36;;;;;;;22.85;21.95;;;37.70;36.10;;;;;;4973014;28;20207;-63
2021/06/29 12:20:07;;;;;;;24.42;23.27;;;36.30;38.50;;;;;;4973051;28;20566;-63
2021/06/29 12:22:36;;;;;;;24.38;23.27;;;39.40;37.70;;;;;;4972696;28;20606;-64
2021/06/29 12:25:05;;;;;;;24.45;23.23;;;41.70;34.10;;;;;;4972818;28;20247;-64
2021/06/29 12:27:32;;;;;;;23.63;22.63;;;43.40;32.20;;;;;;4972834;28;20210;-64
2021/06/29 12:29:58;;;;;;;23.73;22.83;;;44.10;30.70;;;;;;4972698;28;20199;-64
2021/06/29 12:32:27;;;;;;;24.70;23.70;;;44.20;29.80;;;;;;4972654;28;20250;-64
2021/06/29 12:35:08;;;;;;;24.42;23.42;;;43.90;29.70;;;;;;4972721;28;20227;-64